Time;durP1;ratioP1;P1;durP2;ratioP2;P2;SDS_P1;SDS_P2;PMS_P1;PMS_P2;Temp;Humidity;BMP_temperature;BMP_pressure;BME280_temperature;BME280_humidity;BME280_pressure;Samples;Min_cycle;Max_cycle;Signal;HPM_P1;HPM_P2
2022/04/08 00:01:41;;;;;;;13.48;10.75;;;;;;;;;;12241326;29;20039;-80
2022/04/08 00:07:43;;;;;;;9.95;9.05;;;;;;;;;;12261311;29;20393;-80
2022/04/08 00:13:45;;;;;;;11.35;10.23;;;;;;;;;;12257719;29;20036;-81
2022/04/08 00:19:46;;;;;;;13.00;11.48;;;;;;;;;;12259300;29;20043;-80
2022/04/08 00:25:48;;;;;;;11.10;9.93;;;;;;;;;;12267848;29;20386;-80
2022/04/08 00:31:57;;;;;;;15.05;12.63;;;;;;;;;;12256601;29;20047;-80
2022/04/08 00:37:59;;;;;;;13.35;12.05;;;;;;;;;;12257719;29;20070;-80
2022/04/08 00:44:01;;;;;;;15.52;14.00;;;;;;;;;;12255784;29;20040;-80
2022/04/08 00:50:03;;;;;;;14.18;12.77;;;;;;;;;;12255971;29;20402;-80
2022/04/08 00:56:05;;;;;;;16.00;14.50;;;;;;;;;;12238839;29;20441;-80
2022/04/08 01:02:07;;;;;;;13.50;12.20;;;;;;;;;;12255764;29;20032;-80
2022/04/08 01:08:14;;;;;;;15.88;13.90;;;;;;;;;;12261130;29;20306;-80
2022/04/08 01:14:16;;;;;;;13.90;12.63;;;;;;;;;;12258715;29;20043;-81
2022/04/08 01:20:18;;;;;;;15.15;13.65;;;;;;;;;;12237536;29;20036;-80
2022/04/08 01:26:20;;;;;;;13.65;12.40;;;;;;;;;;12237560;29;20039;-80
2022/04/08 01:32:22;;;;;;;15.50;13.93;;;;;;;;;;12237054;29;20046;-80
2022/04/08 01:38:24;;;;;;;16.10;14.57;;;;;;;;;;12236774;29;20066;-80
2022/04/08 01:44:25;;;;;;;16.33;14.63;;;;;;;;;;12254727;29;20043;-80
2022/04/08 01:50:27;;;;;;;17.83;15.93;;;;;;;;;;12236669;29;20062;-80
2022/04/08 01:56:29;;;;;;;16.27;14.68;;;;;;;;;;12253758;29;20057;-80
2022/04/08 02:02:30;;;;;;;19.15;17.17;;;;;;;;;;12236272;29;20046;-80
2022/04/08 02:08:32;;;;;;;17.88;16.08;;;;;;;;;;12252992;29;20497;-80
2022/04/08 02:14:34;;;;;;;16.35;14.68;;;;;;;;;;12260149;28;20043;-80
2022/04/08 02:20:36;;;;;;;15.25;13.75;;;;;;;;;;12266288;29;20035;-80
2022/04/08 02:26:37;;;;;;;17.77;16.08;;;;;;;;;;12262703;29;20032;-80
2022/04/08 02:32:39;;;;;;;20.38;18.38;;;;;;;;;;12262029;29;20416;-80
2022/04/08 02:38:41;;;;;;;19.35;17.42;;;;;;;;;;12262146;29;20409;-80
2022/04/08 02:44:43;;;;;;;20.40;18.50;;;;;;;;;;12273092;29;20054;-80
2022/04/08 02:50:45;;;;;;;17.52;15.77;;;;;;;;;;12244245;29;20043;-80
2022/04/08 02:56:47;;;;;;;21.27;19.07;;;;;;;;;;12261561;29;20031;-80
2022/04/08 03:02:49;;;;;;;17.52;15.85;;;;;;;;;;12244155;29;20393;-80
2022/04/08 03:08:51;;;;;;;16.90;15.13;;;;;;;;;;12244295;29;20048;-81
2022/04/08 03:14:52;;;;;;;16.20;14.70;;;;;;;;;;12243322;29;20035;-81
2022/04/08 03:20:55;;;;;;;16.23;14.57;;;;;;;;;;12243251;29;20040;-81
2022/04/08 03:26:56;;;;;;;17.83;15.97;;;;;;;;;;12255398;29;20036;-81
2022/04/08 03:32:58;;;;;;;16.50;14.80;;;;;;;;;;12259219;29;20051;-81
2022/04/08 03:39:00;;;;;;;15.35;13.82;;;;;;;;;;12258936;29;20074;-81
2022/04/08 03:45:02;;;;;;;17.77;15.87;;;;;;;;;;12254062;28;20043;-81
2022/04/08 03:51:03;;;;;;;14.68;13.30;;;;;;;;;;12240956;29;20493;-81
2022/04/08 03:57:05;;;;;;;18.25;16.50;;;;;;;;;;12258699;29;20039;-81
2022/04/08 04:03:07;;;;;;;15.57;13.98;;;;;;;;;;12258174;29;20039;-82
2022/04/08 04:09:09;;;;;;;16.48;14.90;;;;;;;;;;12258118;29;20047;-81
2022/04/08 04:15:11;;;;;;;18.48;16.58;;;;;;;;;;12253480;29;20482;-81
2022/04/08 04:21:12;;;;;;;16.48;14.77;;;;;;;;;;12257921;29;20509;-81
2022/04/08 04:27:14;;;;;;;16.65;15.05;;;;;;;;;;12239824;29;20039;-81
2022/04/08 04:33:16;;;;;;;19.77;17.77;;;;;;;;;;12240502;29;20048;-82
2022/04/08 04:39:18;;;;;;;17.97;16.20;;;;;;;;;;12256236;29;20055;-81
2022/04/08 04:45:20;;;;;;;18.80;17.00;;;;;;;;;;12259940;29;20500;-82
2022/04/08 04:51:21;;;;;;;17.55;15.85;;;;;;;;;;12238868;29;20047;-80
2022/04/08 04:57:23;;;;;;;17.85;14.88;;;;;;;;;;12255399;29;20039;-80
2022/04/08 05:03:25;;;;;;;18.27;16.52;;;;;;;;;;12255503;29;20043;-81
2022/04/08 05:09:26;;;;;;;16.30;14.70;;;;;;;;;;12237865;29;20064;-81
2022/04/08 05:15:32;;;;;;;17.00;15.38;;;;;;;;;;12254784;29;20128;-81
2022/04/08 05:21:34;;;;;;;17.27;15.57;;;;;;;;;;12254387;29;20035;-81
2022/04/08 05:27:37;;;;;;;19.20;17.20;;;;;;;;;;12237280;29;20036;-80
2022/04/08 05:33:39;;;;;;;19.48;17.45;;;;;;;;;;12256530;29;20055;-81
2022/04/08 05:39:41;;;;;;;20.17;18.17;;;;;;;;;;12267307;29;20417;-80
2022/04/08 05:45:43;;;;;;;17.60;15.90;;;;;;;;;;12253782;29;20046;-81
2022/04/08 05:51:47;;;;;;;19.52;17.52;;;;;;;;;;12251530;29;20047;-81
2022/04/08 05:57:49;;;;;;;17.23;15.45;;;;;;;;;;12288818;28;20493;-80
2022/04/08 06:03:50;;;;;;;20.10;17.40;;;;;;;;;;12271907;28;20043;-80
2022/04/08 06:09:53;;;;;;;21.90;19.75;;;;;;;;;;12273608;29;20515;-79
2022/04/08 06:15:55;;;;;;;24.17;21.73;;;;;;;;;;12295057;28;20035;-78
2022/04/08 06:21:57;;;;;;;21.08;18.98;;;;;;;;;;12261062;29;20034;-81
2022/04/08 06:28:02;;;;;;;18.63;16.83;;;;;;;;;;12265799;28;20381;-82
2022/04/08 06:34:04;;;;;;;16.83;15.25;;;;;;;;;;12283745;28;20035;-82
2022/04/08 06:40:07;;;;;;;26.60;24.02;;;;;;;;;;12278341;28;20055;-82
2022/04/08 06:46:08;;;;;;;16.27;14.63;;;;;;;;;;12260708;28;20039;-81
2022/04/08 06:52:10;;;;;;;15.90;14.25;;;;;;;;;;12258228;29;20100;-79
2022/04/08 06:58:12;;;;;;;23.17;20.67;;;;;;;;;;12256683;29;20039;-78
2022/04/08 07:04:15;;;;;;;30.40;27.20;;;;;;;;;;12268952;29;20139;-79
2022/04/08 07:10:17;;;;;;;32.30;29.10;;;;;;;;;;12278347;28;20043;-78
2022/04/08 07:16:19;;;;;;;25.05;22.35;;;;;;;;;;12281571;29;20019;-79
2022/04/08 07:22:20;;;;;;;19.38;17.35;;;;;;;;;;12269898;28;20430;-79
2022/04/08 07:28:23;;;;;;;24.17;20.77;;;;;;;;;;12265714;28;20066;-79
2022/04/08 07:34:24;;;;;;;19.40;17.50;;;;;;;;;;12298308;28;20027;-81
2022/04/08 07:40:26;;;;;;;15.13;13.60;;;;;;;;;;12276340;28;20051;-78
2022/04/08 07:46:28;;;;;;;16.63;14.93;;;;;;;;;;12274413;28;20024;-79
2022/04/08 07:52:30;;;;;;;13.00;10.77;;;;;;;;;;12259134;28;20058;-79
2022/04/08 07:58:32;;;;;;;12.48;11.10;;;;;;;;;;12291657;28;20046;-79
2022/04/08 08:04:33;;;;;;;9.67;8.63;;;;;;;;;;12261972;29;20043;-78
2022/04/08 08:10:35;;;;;;;15.32;13.70;;;;;;;;;;12292592;28;20043;-80
2022/04/08 08:16:37;;;;;;;20.17;16.20;;;;;;;;;;12253287;29;20454;-79
2022/04/08 08:22:39;;;;;;;18.13;14.90;;;;;;;;;;12256070;29;20038;-81
2022/04/08 08:28:41;;;;;;;18.17;14.33;;;;;;;;;;12290474;28;20043;-80
2022/04/08 08:34:43;;;;;;;18.63;15.77;;;;;;;;;;12262119;29;20051;-80
2022/04/08 08:40:44;;;;;;;22.00;17.05;;;;;;;;;;12266764;29;20051;-80
2022/04/08 08:46:48;;;;;;;15.67;12.90;;;;;;;;;;12268650;28;20046;-80
2022/04/08 08:52:50;;;;;;;16.23;14.27;;;;;;;;;;12275899;28;20565;-87
2022/04/08 08:58:52;;;;;;;16.98;12.88;;;;;;;;;;12283612;28;20035;-81
2022/04/08 09:04:54;;;;;;;15.55;13.10;;;;;;;;;;12279560;29;20606;-80
2022/04/08 09:10:56;;;;;;;16.13;14.40;;;;;;;;;;12294431;28;20034;-80
2022/04/08 09:17:02;;;;;;;26.70;19.13;;;;;;;;;;12258984;28;20039;-79
2022/04/08 09:23:06;;;;;;;23.88;18.38;;;;;;;;;;12274486;28;20038;-80
2022/04/08 09:29:07;;;;;;;20.80;16.15;;;;;;;;;;12253792;29;20039;-78
2022/04/08 09:35:16;;;;;;;17.03;13.10;;;;;;;;;;12244605;29;20046;-80
2022/04/08 09:41:18;;;;;;;20.70;17.42;;;;;;;;;;12277933;28;20059;-79
2022/04/08 09:47:19;;;;;;;24.15;18.67;;;;;;;;;;12278623;28;20035;-77
2022/04/08 09:53:22;;;;;;;26.50;19.40;;;;;;;;;;12256675;29;20039;-79
2022/04/08 09:59:28;;;;;;;22.50;17.48;;;;;;;;;;12258875;28;20140;-78
2022/04/08 10:05:30;;;;;;;19.15;15.63;;;;;;;;;;12294519;28;20044;-78
2022/04/08 10:11:35;;;;;;;15.43;12.63;;;;;;;;;;12283780;29;20513;-78
2022/04/08 10:17:40;;;;;;;20.27;13.35;;;;;;;;;;12274127;29;20043;-79
2022/04/08 10:23:50;;;;;;;19.33;15.68;;;;;;;;;;12271155;28;20201;-79
2022/04/08 10:29:55;;;;;;;18.10;12.10;;;;;;;;;;12234926;29;20051;-81
2022/04/08 10:36:01;;;;;;;14.98;11.77;;;;;;;;;;12254371;28;20365;-79
2022/04/08 10:42:08;;;;;;;21.75;15.68;;;;;;;;;;12274417;29;20047;-79
2022/04/08 10:48:10;;;;;;;14.25;11.15;;;;;;;;;;12275153;29;20031;-79
2022/04/08 10:54:12;;;;;;;14.73;11.97;;;;;;;;;;12290127;29;20058;-78
2022/04/08 11:00:15;;;;;;;16.73;12.85;;;;;;;;;;12273709;28;20032;-80
2022/04/08 11:06:19;;;;;;;11.55;10.35;;;;;;;;;;12289155;29;20428;-84
2022/04/08 11:12:20;;;;;;;12.80;11.13;;;;;;;;;;12254493;29;20051;-79
2022/04/08 11:18:24;;;;;;;12.67;9.73;;;;;;;;;;12270379;29;20039;-76
2022/04/08 11:24:32;;;;;;;14.15;11.13;;;;;;;;;;12272345;28;20485;-78
2022/04/08 11:30:35;;;;;;;12.10;8.30;;;;;;;;;;12241777;29;20071;-78
2022/04/08 11:36:37;;;;;;;12.45;10.60;;;;;;;;;;12260293;29;20377;-79
2022/04/08 11:42:39;;;;;;;8.82;7.90;;;;;;;;;;12242461;29;20059;-79
2022/04/08 11:48:40;;;;;;;10.53;8.90;;;;;;;;;;12253507;28;20528;-79
2022/04/08 11:54:42;;;;;;;10.97;9.47;;;;;;;;;;12258431;29;20039;-78
2022/04/08 12:00:44;;;;;;;8.20;7.40;;;;;;;;;;12251928;29;20472;-77
2022/04/08 12:06:48;;;;;;;12.77;10.40;;;;;;;;;;12272804;28;20031;-78
2022/04/08 12:12:49;;;;;;;10.48;8.80;;;;;;;;;;12303917;28;20042;-77
2022/04/08 12:18:52;;;;;;;14.05;10.05;;;;;;;;;;12286105;29;20036;-77
2022/04/08 12:24:54;;;;;;;11.38;8.45;;;;;;;;;;12286500;28;20039;-75
2022/04/08 12:30:56;;;;;;;10.67;7.53;;;;;;;;;;12304327;28;20050;-75
2022/04/08 12:36:57;;;;;;;10.73;7.28;;;;;;;;;;12304214;28;20043;-75
2022/04/08 12:43:02;;;;;;;7.47;6.68;;;;;;;;;;12302084;28;20058;-76
2022/04/08 12:49:04;;;;;;;6.43;5.25;;;;;;;;;;12283678;29;20039;-76
2022/04/08 12:55:07;;;;;;;8.63;6.75;;;;;;;;;;12301979;28;20035;-76
2022/04/08 13:01:09;;;;;;;6.43;5.00;;;;;;;;;;12285835;28;20035;-75
2022/04/08 13:07:11;;;;;;;4.15;3.75;;;;;;;;;;12304351;28;20035;-76
2022/04/08 13:13:12;;;;;;;6.80;5.32;;;;;;;;;;12285059;29;20051;-76
2022/04/08 13:19:14;;;;;;;4.85;3.88;;;;;;;;;;12285719;28;20046;-76
2022/04/08 13:25:16;;;;;;;11.43;9.68;;;;;;;;;;12302176;28;20046;-76
2022/04/08 13:31:17;;;;;;;13.37;11.97;;;;;;;;;;12301951;28;20039;-76
2022/04/08 13:37:19;;;;;;;17.13;14.45;;;;;;;;;;12302643;28;20120;-76
2022/04/08 13:43:21;;;;;;;12.80;7.93;;;;;;;;;;12285220;29;20036;-77
2022/04/08 13:49:23;;;;;;;9.10;8.20;;;;;;;;;;12301456;28;20055;-76
2022/04/08 13:55:24;;;;;;;12.97;8.23;;;;;;;;;;12301065;28;20035;-76
2022/04/08 14:01:26;;;;;;;11.73;8.43;;;;;;;;;;12283981;28;20363;-76
2022/04/08 14:07:28;;;;;;;10.88;7.97;;;;;;;;;;12268555;28;20425;-76
2022/04/08 14:13:30;;;;;;;11.33;7.60;;;;;;;;;;12286248;28;20054;-77
2022/04/08 14:19:32;;;;;;;11.20;7.80;;;;;;;;;;12293466;28;20385;-76
2022/04/08 14:25:34;;;;;;;6.32;5.30;;;;;;;;;;12293396;28;20480;-76
2022/04/08 14:31:36;;;;;;;6.10;3.90;;;;;;;;;;12309770;28;20043;-76
2022/04/08 14:37:38;;;;;;;6.60;3.88;;;;;;;;;;12290560;28;20052;-76
2022/04/08 14:43:40;;;;;;;3.38;3.05;;;;;;;;;;12274134;29;20030;-76
2022/04/08 14:49:42;;;;;;;7.28;4.20;;;;;;;;;;12306578;28;20039;-76
2022/04/08 14:55:44;;;;;;;4.95;2.85;;;;;;;;;;12289399;28;20039;-76
2022/04/08 15:01:46;;;;;;;3.10;2.42;;;;;;;;;;12289197;28;20035;-76
2022/04/08 15:07:47;;;;;;;6.00;2.65;;;;;;;;;;12307077;28;20054;-76
2022/04/08 15:13:49;;;;;;;3.50;2.20;;;;;;;;;;12305517;28;20508;-76
2022/04/08 15:19:51;;;;;;;4.22;2.13;;;;;;;;;;12319999;28;20035;-77
2022/04/08 15:25:53;;;;;;;5.32;3.22;;;;;;;;;;12304561;28;20042;-77
2022/04/08 15:31:54;;;;;;;3.70;2.40;;;;;;;;;;12304728;28;20050;-77
2022/04/08 15:37:57;;;;;;;4.60;3.05;;;;;;;;;;12305571;28;20062;-76
2022/04/08 15:43:58;;;;;;;9.47;6.13;;;;;;;;;;12302610;28;20035;-77
2022/04/08 15:50:00;;;;;;;4.57;3.30;;;;;;;;;;12317430;28;20299;-77
2022/04/08 15:56:02;;;;;;;3.28;2.80;;;;;;;;;;12284832;28;20035;-76
2022/04/08 16:02:04;;;;;;;4.68;3.15;;;;;;;;;;12302151;28;20038;-76
2022/04/08 16:08:06;;;;;;;4.32;3.17;;;;;;;;;;12302833;28;20043;-76
2022/04/08 16:14:08;;;;;;;4.13;2.50;;;;;;;;;;12301120;28;20054;-77
2022/04/08 16:20:16;;;;;;;3.93;1.97;;;;;;;;;;12299275;28;20047;-76
2022/04/08 16:26:18;;;;;;;2.70;2.10;;;;;;;;;;12283645;28;20042;-76
2022/04/08 16:32:20;;;;;;;2.90;1.70;;;;;;;;;;12283266;28;20043;-76
2022/04/08 16:38:22;;;;;;;2.20;1.40;;;;;;;;;;12299552;28;20070;-76
2022/04/08 16:44:23;;;;;;;2.00;1.30;;;;;;;;;;12316964;28;20046;-77
2022/04/08 16:50:25;;;;;;;2.97;1.30;;;;;;;;;;12283192;28;20504;-76
2022/04/08 16:56:27;;;;;;;4.47;1.53;;;;;;;;;;12282899;28;20038;-76
2022/04/08 17:02:28;;;;;;;2.63;1.47;;;;;;;;;;12300877;28;20043;-76
2022/04/08 17:08:33;;;;;;;3.57;1.67;;;;;;;;;;12300972;28;20660;-75
2022/04/08 17:14:35;;;;;;;3.72;2.30;;;;;;;;;;12299726;28;20047;-75
2022/04/08 17:20:39;;;;;;;1.63;1.13;;;;;;;;;;12282578;28;20031;-76
2022/04/08 17:26:40;;;;;;;3.13;1.35;;;;;;;;;;12282918;28;20035;-75
2022/04/08 17:32:42;;;;;;;4.13;1.43;;;;;;;;;;12312086;28;20046;-76
2022/04/08 17:38:44;;;;;;;4.70;2.70;;;;;;;;;;12299148;28;20055;-75
2022/04/08 17:44:46;;;;;;;6.07;3.00;;;;;;;;;;12299150;28;20039;-76
2022/04/08 17:50:48;;;;;;;5.80;3.67;;;;;;;;;;12282400;28;20039;-74
2022/04/08 17:56:49;;;;;;;5.05;3.90;;;;;;;;;;12298535;28;20028;-75
2022/04/08 18:02:51;;;;;;;4.57;3.20;;;;;;;;;;12298354;28;20390;-75
2022/04/08 18:08:54;;;;;;;5.85;3.00;;;;;;;;;;12298264;28;20504;-75
2022/04/08 18:14:56;;;;;;;12.32;9.40;;;;;;;;;;12280785;28;20045;-75
2022/04/08 18:20:58;;;;;;;7.80;6.20;;;;;;;;;;12280628;28;20035;-76
2022/04/08 18:27:00;;;;;;;5.90;3.75;;;;;;;;;;12308212;28;20046;-76
2022/04/08 18:33:02;;;;;;;6.57;5.13;;;;;;;;;;12279608;28;20047;-75
2022/04/08 18:39:03;;;;;;;5.97;2.67;;;;;;;;;;12265016;29;20059;-75
2022/04/08 18:45:06;;;;;;;5.73;3.40;;;;;;;;;;12300292;28;20031;-76
2022/04/08 18:51:07;;;;;;;3.60;2.75;;;;;;;;;;12281589;28;20066;-76
2022/04/08 18:57:09;;;;;;;2.97;2.03;;;;;;;;;;12297734;28;20034;-76
2022/04/08 19:03:11;;;;;;;3.10;2.70;;;;;;;;;;12287836;28;20046;-76
2022/04/08 19:09:13;;;;;;;3.10;2.63;;;;;;;;;;12289836;29;20023;-76
2022/04/08 19:15:14;;;;;;;7.00;4.13;;;;;;;;;;12308225;28;20039;-76
2022/04/08 19:21:16;;;;;;;3.47;2.90;;;;;;;;;;12314335;28;20036;-75
2022/04/08 19:27:18;;;;;;;5.87;3.00;;;;;;;;;;12274945;28;20138;-76
2022/04/08 19:33:20;;;;;;;7.50;3.13;;;;;;;;;;12307435;28;20051;-76
2022/04/08 19:39:22;;;;;;;2.60;2.15;;;;;;;;;;12289688;28;20054;-76
2022/04/08 19:45:24;;;;;;;5.53;2.80;;;;;;;;;;12290336;28;20054;-75
2022/04/08 19:51:26;;;;;;;6.50;2.78;;;;;;;;;;12289968;28;20051;-76
2022/04/08 19:57:28;;;;;;;4.40;3.03;;;;;;;;;;12289492;28;20147;-76
2022/04/08 20:03:30;;;;;;;6.35;3.97;;;;;;;;;;12288914;29;20524;-76
2022/04/08 20:09:32;;;;;;;7.10;2.87;;;;;;;;;;12288446;28;20039;-76
2022/04/08 20:15:34;;;;;;;5.20;3.45;;;;;;;;;;12272524;28;20042;-76
2022/04/08 20:21:36;;;;;;;7.00;3.13;;;;;;;;;;12303845;28;20038;-76
2022/04/08 20:27:37;;;;;;;5.80;3.60;;;;;;;;;;12302625;28;20039;-76
2022/04/08 20:33:39;;;;;;;5.83;4.43;;;;;;;;;;12302515;28;20047;-76
2022/04/08 20:39:41;;;;;;;5.47;2.97;;;;;;;;;;12280645;28;20063;-75
2022/04/08 20:45:43;;;;;;;7.50;3.73;;;;;;;;;;12284905;28;20042;-76
2022/04/08 20:51:45;;;;;;;4.73;3.33;;;;;;;;;;12301301;28;20523;-75
2022/04/08 20:57:46;;;;;;;7.33;4.00;;;;;;;;;;12300966;28;20030;-76
2022/04/08 21:03:48;;;;;;;7.18;3.63;;;;;;;;;;12269177;29;20046;-76
2022/04/08 21:09:50;;;;;;;6.82;4.13;;;;;;;;;;12301137;28;20046;-76
2022/04/08 21:15:52;;;;;;;8.40;5.05;;;;;;;;;;12285700;28;20046;-76
2022/04/08 21:21:53;;;;;;;7.37;3.87;;;;;;;;;;12284967;28;20023;-76
2022/04/08 21:27:56;;;;;;;6.00;3.28;;;;;;;;;;12302572;28;20039;-76
2022/04/08 21:33:58;;;;;;;5.80;2.75;;;;;;;;;;12302414;28;20409;-75
2022/04/08 21:40:00;;;;;;;8.38;4.07;;;;;;;;;;12302032;28;20505;-76
2022/04/08 21:46:02;;;;;;;7.00;3.37;;;;;;;;;;12284473;28;20034;-76
2022/04/08 21:52:03;;;;;;;5.57;3.07;;;;;;;;;;12268572;28;20050;-76
2022/04/08 21:58:05;;;;;;;5.60;2.47;;;;;;;;;;12280648;28;20043;-76
2022/04/08 22:04:08;;;;;;;6.85;2.50;;;;;;;;;;12302737;28;20035;-76
2022/04/08 22:10:10;;;;;;;3.70;2.50;;;;;;;;;;12283788;28;20187;-75
2022/04/08 22:16:11;;;;;;;6.93;2.53;;;;;;;;;;12311948;28;20046;-75
2022/04/08 22:22:13;;;;;;;4.50;2.33;;;;;;;;;;12283774;28;20051;-75
2022/04/08 22:28:16;;;;;;;4.85;1.95;;;;;;;;;;12284268;29;20031;-75
2022/04/08 22:34:18;;;;;;;7.15;2.53;;;;;;;;;;12302478;28;20043;-76
2022/04/08 22:40:20;;;;;;;4.80;2.53;;;;;;;;;;12293296;28;20051;-77
2022/04/08 22:46:22;;;;;;;5.88;2.88;;;;;;;;;;12293002;28;20035;-77
2022/04/08 22:52:24;;;;;;;8.70;3.27;;;;;;;;;;12303124;28;20043;-76
2022/04/08 23:04:46;;;;;;;4.82;3.00;;;;;;;;;;12309353;28;20058;-76
2022/04/08 23:10:48;;;;;;;4.00;2.70;;;;;;;;;;12291457;28;20050;-76
2022/04/08 23:16:49;;;;;;;4.82;2.85;;;;;;;;;;12308462;28;20028;-76
2022/04/08 23:22:51;;;;;;;4.80;2.95;;;;;;;;;;12296088;28;20035;-76
2022/04/08 23:28:53;;;;;;;5.93;3.15;;;;;;;;;;12314701;28;20515;-76
2022/04/08 23:34:55;;;;;;;4.90;2.10;;;;;;;;;;12291239;28;20047;-76
2022/04/08 23:40:56;;;;;;;5.15;3.42;;;;;;;;;;12307684;28;20046;-76
2022/04/08 23:46:58;;;;;;;4.18;2.60;;;;;;;;;;12306503;28;20429;-76
2022/04/08 23:53:00;;;;;;;4.57;2.77;;;;;;;;;;12273983;28;20047;-76
2022/04/08 23:59:02;;;;;;;4.47;2.45;;;;;;;;;;12318391;28;20027;-76
